Latest Weather Observations for Williamtown

IDN60801

Issued at 8:42 am EST Tuesday 17 September 2019 (issued every 10 minutes, with the page automatically refreshed every 10 minutes)

About weather observations | Map of weather stations | Latest weather observations for NSW | Other Formats
Station Details ID: 061078 Name: WILLIAMTOWN RAAF Lat: -32.79 Lon: 151.84 Height: 7.5 m
Data from the previous 72 hours. | See also: Recent months at Williamtown
Date/Time
EST
Temp
°C
App
Temp
°C
Dew
Point
°C
Rel
Hum
%
Delta-T
°C
Wind Press
QNH
hPa
Press
MSL
hPa
Rain since
9am
mm
Dir  Spd
km/h
Gust
km/h
Spd
kts
Gust
kts
17/08:30am 13.0 8.5 12.5 97 0.3 SSW 28 37 15 20 1020.2 1020.1 16.4
17/08:00am 12.9 8.4 12.6 98 0.2 SSW 28 39 15 21 1020.2 1020.1 16.2
17/07:30am 13.4 9.5 13.2 99 0.1 SSW 26 37 14 20 1020.0 1019.9 14.4
17/07:00am 13.3 9.7 13.0 98 0.2 SSW 24 32 13 17 1019.9 1019.8 12.4
17/06:51am 13.3 9.3 13.0 98 0.2 SSW 26 39 14 21 1019.6 1019.5 11.8
17/06:40am 13.3 9.3 13.0 98 0.2 SSW 26 33 14 18 1019.4 1019.3 11.4
17/06:30am 13.2 8.4 12.9 98 0.2 S 30 41 16 22 1019.1 1019.0 11.4
17/06:00am 13.1 9.4 12.8 98 0.2 SSW 24 35 13 19 1019.4 1019.3 10.4
17/05:57am 13.2 9.2 12.9 98 0.2 SSW 26 35 14 19 1019.3 1019.2 10.0
17/05:43am 13.2 8.4 12.9 98 0.2 SSW 30 43 16 23 1019.3 1019.2 9.2
17/05:30am 13.2 9.2 12.9 98 0.2 SSW 26 33 14 18 1018.8 1018.7 9.0
17/05:00am 13.2 8.4 12.9 98 0.2 SSW 30 39 16 21 1019.3 1019.2 7.0
17/04:39am 13.5 9.6 13.2 98 0.2 SSW 26 37 14 20 1018.8 1018.7 5.6
17/04:30am 13.7 9.8 13.4 98 0.2 S 26 35 14 19 1018.3 1018.2 5.2
17/04:22am 13.8 10.0 13.5 98 0.2 SSW 26 35 14 19 1018.5 1018.4 5.2
17/04:00am 13.9 9.7 13.4 97 0.3 SSW 28 39 15 21 1018.4 1018.3 4.2
17/03:57am 14.0 10.5 13.5 97 0.3 SSW 24 33 13 18 1018.7 1018.6 4.0
17/03:51am 14.1 10.7 13.6 97 0.3 SSW 24 30 13 16 1019.4 1019.3 3.4
17/03:30am 14.4 11.4 13.8 96 0.3 SSW 22 33 12 18 1018.7 1018.6 2.4
17/03:18am 14.6 11.6 13.8 95 0.4 SSW 22 32 12 17 1018.7 1018.6 1.8
17/03:03am 14.6 13.0 13.8 95 0.4 SSW 15 28 8 15 1018.5 1018.4 1.6
17/03:00am 14.6 12.5 13.6 94 0.6 SSW 17 28 9 15 1018.6 1018.5 1.6
17/02:52am 14.8 11.3 13.5 92 0.7 SSW 24 33 13 18 1018.8 1018.7 0.4
17/02:30am 16.0 12.6 12.6 80 1.9 S 22 28 12 15 1018.6 1018.5 0.0
17/02:00am 16.7 13.0 11.6 72 2.8 SSE 22 30 12 16 1018.5 1018.4 0.0
17/01:30am 16.6 11.8 11.5 72 2.8 SSE 28 33 15 18 1019.1 1019.0 0.0
17/01:00am 16.7 12.0 12.0 74 2.6 SSE 28 37 15 20 1019.1 1019.0 0.0
17/12:30am 16.7 12.6 12.7 77 2.2 SSE 26 33 14 18 1019.0 1018.9 0.0
17/12:00am 16.8 12.8 12.9 78 2.2 S 26 35 14 19 1019.4 1019.3 0.0
 
Date/Time
EST
Temp
°C
App
Temp
°C
Dew
Point
°C
Rel
Hum
%
Delta-T
°C
Wind Press
QNH
hPa
Press
MSL
hPa
Rain since
9am
mm
Dir  Spd
km/h
Gust
km/h
Spd
kts
Gust
kts
16/11:30pm 17.1 13.3 12.4 74 2.6 SSE 24 35 13 19 1019.5 1019.4 0.0
16/11:00pm 17.1 13.4 12.6 75 2.5 S 24 30 13 16 1019.5 1019.4 0.0
16/10:30pm 17.0 13.5 13.3 79 2.1 S 24 30 13 16 1019.8 1019.7 0.0
16/10:00pm 17.4 12.3 13.1 76 2.4 SSE 32 41 17 22 1019.0 1018.9 0.0
16/09:30pm 17.3 13.0 13.2 77 2.3 S 28 37 15 20 1019.0 1018.9 0.0
16/09:00pm 16.9 13.1 13.6 81 1.9 S 26 35 14 19 1018.8 1018.7 0.0
16/08:30pm 17.4 13.7 13.9 80 2.0 S 26 33 14 18 1019.0 1018.9 0.0
16/08:00pm 17.5 12.5 14.0 80 2.0 S 33 48 18 26 1018.7 1018.6 0.0
16/07:46pm 17.7 12.7 14.0 79 2.1 S 33 46 18 25 1018.8 1018.7 0.0
16/07:30pm 17.8 12.9 14.3 80 2.0 S 33 48 18 26 1018.6 1018.5 0.0
16/07:23pm 17.8 13.5 14.5 81 1.9 S 30 48 16 26 1018.4 1018.3 0.0
16/07:00pm 17.7 13.2 14.8 83 1.7 S 32 41 17 22 1017.6 1017.5 0.0
16/06:30pm 17.8 12.7 14.7 82 1.8 S 35 59 19 32 1016.9 1016.8 0.0
16/06:01pm 18.1 12.4 15.2 83 1.7 SSW 39 59 21 32 1016.3 1016.2 0.0
16/06:00pm 18.1 12.4 15.2 83 1.7 SSW 39 56 21 30 1016.4 1016.3 0.0
16/05:54pm 18.3 12.2 15.2 82 1.8 SSW 41 59 22 32 1015.9 1015.8 0.0
16/05:34pm 19.2 14.1 13.8 71 3.1 SSW 33 65 18 35 1014.3 1014.2 0.0
16/05:30pm 21.2 17.6 10.7 51 5.7 SW 20 52 11 28 1014.7 1014.6 0.0
16/05:28pm 23.1 19.5 8.4 39 7.8 WSW 17 52 9 28 1014.7 1014.6 0.0
16/05:00pm 25.8 22.6 0.5 19 11.8 NNE 7 11 4 6 1013.1 1013.0 0.0
16/04:30pm 25.9 22.5 1.9 21 11.5 N 9 13 5 7 1012.7 1012.6 0.0
16/04:00pm 27.3 22.6 -1.6 15 13.1 NNE 13 17 7 9 1012.5 1012.4 0.0
16/03:30pm 28.6 24.9 -4.7 11 14.5 WNW 6 9 3 5 1012.6 1012.5 0.0
16/03:00pm 28.8 24.4 -5.8 10 14.8 SW 9 15 5 8 1012.8 1012.7 0.0
16/02:30pm 28.4 23.2 -6.1 10 14.6 NW 13 17 7 9 1012.8 1012.7 0.0
16/02:00pm 28.4 21.9 0.2 16 13.4 NW 24 54 13 29 1013.0 1012.9 0.0
16/01:56pm 28.3 22.5 0.1 16 13.3 WNW 20 54 11 29 1013.0 1012.9 0.0
16/01:30pm 28.8 22.2 -7.2 9 15.0 W 20 30 11 16 1013.4 1013.3 0.0
16/01:00pm 29.6 21.5 -6.6 9 15.3 WNW 28 37 15 20 1013.5 1013.4 0.0
16/12:30pm 30.9 22.9 -5.6 9 15.9 WNW 28 39 15 21 1013.8 1013.7 0.0
16/12:00pm 28.8 19.9 -7.2 9 15.0 WNW 32 41 17 22 1014.1 1014.0 0.0
16/11:31am 29.6 20.6 -8.1 8 15.6 WNW 32 52 17 28 1014.6 1014.5 0.0
16/11:30am 29.3 20.3 -8.3 8 15.4 WNW 32 46 17 25 1014.7 1014.6 0.0
16/11:09am 28.9 23.5 1.4 17 13.3 NW 19 39 10 21 1015.1 1015.0 0.0
16/11:00am 26.5 22.5 3.1 22 11.5 NW 13 19 7 10 1015.3 1015.2 0.0
16/10:30am 24.4 20.3 2.5 24 10.5 NNW 13 20 7 11 1015.9 1015.8 0.0
16/10:00am 22.6 19.0 2.7 27 9.4 WNW 11 17 6 9 1016.3 1016.2 0.0
16/09:30am 21.1 17.3 1.9 28 8.9 NW 11 17 6 9 1016.7 1016.6 0.0
16/09:00am 20.2 16.7 3.4 33 7.9 NW 11 15 6 8 1017.0 1016.9 0.0
16/08:30am 18.3 13.7 1.8 33 7.4 NW 15 20 8 11 1017.2 1017.1 0.0
16/08:00am 17.0 11.6 1.0 34 7.0 NW 19 24 10 13 1017.2 1017.1 0.0
16/07:30am 15.0 10.6 2.9 44 5.4 NW 15 19 8 10 1017.2 1017.1 0.0
16/07:00am 13.3 8.9 2.8 49 4.6 NW 15 19 8 10 1017.2 1017.1 0.0
16/06:30am 12.3 7.9 2.5 51 4.3 NW 15 20 8 11 1017.1 1017.0 0.0
16/06:00am 9.3 6.3 3.9 69 2.4 WNW 9 11 5 6 1017.3 1017.2 0.0
16/05:30am 9.6 5.8 4.0 68 2.5 NW 13 15 7 8 1017.0 1016.9 0.0
16/05:00am 9.6 5.5 4.2 69 2.4 NW 15 19 8 10 1016.9 1016.8 0.0
16/04:30am 9.5 6.6 4.7 72 2.1 WNW 9 11 5 6 1017.0 1016.9 0.0
16/04:00am 10.1 6.9 4.9 70 2.3 NW 11 13 6 7 1017.0 1016.9 0.0
16/03:30am 9.5 6.6 4.7 72 2.1 WNW 9 13 5 7 1017.2 1017.1 0.0
16/03:00am 10.1 9.4 6.8 80 1.5 CALM 0 0 0 0 1017.2 1017.1 0.0
16/02:30am 11.5 10.9 7.6 77 1.9 CALM 0 0 0 0 1017.3 1017.2 0.0
16/02:00am 11.4 10.3 7.1 75 2.1 NNW 2 7 1 4 1017.6 1017.5 0.0
16/01:30am 11.0 8.4 7.9 81 1.5 NNW 11 11 6 6 1017.9 1017.8 0.0
16/01:00am 11.1 8.8 7.6 79 1.7 NW 9 11 5 6 1018.2 1018.1 0.0
16/12:30am 10.7 9.1 8.1 84 1.3 NNW 6 7 3 4 1018.4 1018.3 0.0
16/12:00am 11.1 9.3 8.0 81 1.5 NNW 7 9 4 5 1018.4 1018.3 0.0
 
Date/Time
EST
Temp
°C
App
Temp
°C
Dew
Point
°C
Rel
Hum
%
Delta-T
°C
Wind Press
QNH
hPa
Press
MSL
hPa
Rain since
9am
mm
Dir  Spd
km/h
Gust
km/h
Spd
kts
Gust
kts
15/11:30pm 12.3 10.6 8.2 76 2.0 WNW 7 9 4 5 1018.5 1018.4 0.0
15/11:00pm 12.7 10.3 7.0 68 2.7 WNW 9 11 5 6 1018.6 1018.5 0.0
15/10:30pm 16.1 13.5 7.6 57 4.2 NNE 11 15 6 8 1018.5 1018.4 0.0
15/10:00pm 15.7 13.4 7.5 58 4.1 N 9 13 5 7 1018.6 1018.5 0.0
15/09:30pm 17.2 14.5 7.3 52 5.0 NE 11 15 6 8 1018.8 1018.7 0.0
15/09:00pm 17.7 14.8 8.0 53 4.9 NNE 13 19 7 10 1019.1 1019.0 0.0
15/08:30pm 17.7 15.4 9.1 57 4.5 NNE 11 15 6 8 1019.3 1019.2 0.0
15/08:00pm 17.8 16.0 10.7 63 3.8 NE 11 15 6 8 1019.3 1019.2 0.0
15/07:30pm 18.2 16.6 11.7 66 3.6 NNE 11 15 6 8 1019.2 1019.1 0.0
15/07:00pm 18.2 16.7 13.1 72 2.9 NE 13 19 7 10 1019.0 1018.9 0.0
15/06:30pm 18.4 16.8 12.8 70 3.1 NE 13 17 7 9 1019.0 1018.9 0.0
15/06:00pm 18.9 17.7 11.7 63 4.0 ENE 9 13 5 7 1018.8 1018.7 0.0
15/05:30pm 20.0 17.2 11.2 57 4.8 NE 17 20 9 11 1018.7 1018.6 0.0
15/05:00pm 21.5 17.9 9.7 47 6.3 NE 19 26 10 14 1019.0 1018.9 0.0
15/04:30pm 22.7 20.8 11.7 49 6.2 NE 13 17 7 9 1019.0 1018.9 0.0
15/04:00pm 24.1 21.9 10.7 43 7.4 ENE 13 17 7 9 1018.7 1018.6 0.0
15/03:30pm 23.1 20.9 10.9 46 6.8 E 13 17 7 9 1018.8 1018.7 0.0
15/03:00pm 23.5 20.3 9.9 42 7.4 SE 17 24 9 13 1019.1 1019.0 0.0
15/02:30pm 26.3 22.7 0.9 19 12.0 WNW 9 17 5 9 1019.3 1019.2 0.0
15/02:00pm 25.4 21.9 3.4 24 10.8 N 11 15 6 8 1019.3 1019.2 0.0
15/01:30pm 25.0 21.0 4.7 27 10.2 NNW 15 20 8 11 1019.7 1019.6 0.0
15/01:00pm 24.4 20.8 5.2 29 9.7 NNW 13 19 7 10 1020.2 1020.1 0.0
15/12:30pm 23.4 19.7 6.2 33 8.8 N 15 20 8 11 1020.6 1020.5 0.0
15/12:00pm 22.6 18.9 6.4 35 8.2 NNW 15 22 8 12 1021.2 1021.2 0.0
15/11:30am 21.5 17.6 7.3 40 7.3 NNW 17 22 9 12 1021.7 1021.7 0.0
15/11:00am 20.4 17.0 9.0 48 6.0 NW 17 26 9 14 1022.3 1022.3 0.0
15/10:30am 19.3 15.4 9.5 53 5.2 NNW 20 26 11 14 1022.7 1022.7 0.0
15/10:00am 18.4 14.9 10.3 59 4.3 NW 19 26 10 14 1023.1 1023.1 0.0
15/09:30am 17.2 13.1 10.1 63 3.8 WNW 22 28 12 15 1023.7 1023.7 0.0
15/09:00am 15.4 10.5 10.0 70 2.8 NW 26 35 14 19 1023.7 1023.7 0.0
15/08:30am 14.3 9.9 10.5 78 2.0 WNW 24 33 13 18 1023.9 1023.9 0.0
15/08:00am 12.6 9.2 10.5 87 1.1 WNW 19 28 10 15 1023.9 1023.9 0.0
15/07:30am 11.3 9.0 10.5 95 0.4 NW 13 17 7 9 1023.6 1023.6 0.0
15/07:00am 10.0 8.3 9.7 98 0.1 NW 9 13 5 7 1023.4 1023.4 0.0
15/06:30am 8.7 6.3 8.6 99 0.0 NW 11 13 6 7 1023.3 1023.3 0.0
15/06:00am 7.5 4.4 7.2 98 0.1 NW 13 15 7 8 1023.1 1023.1 0.0
15/05:30am 7.9 5.3 7.6 98 0.1 NW 11 13 6 7 1022.8 1022.8 0.0
15/05:00am 7.9 5.2 7.5 97 0.2 WNW 11 13 6 7 1022.6 1022.6 0.0
15/04:30am 7.9 5.6 7.3 96 0.3 NW 9 11 5 6 1022.0 1022.0 0.0
15/04:00am 7.6 6.9 6.9 95 0.3 CALM 0 0 0 0 1022.2 1022.2 0.0
15/03:30am 7.8 5.9 6.9 94 0.4 NW 6 7 3 4 1022.4 1022.4 0.0
15/03:00am 8.3 6.4 7.7 96 0.3 NW 7 7 4 4 1022.5 1022.5 0.0
15/02:30am 8.0 7.3 7.1 94 0.4 CALM 0 6 0 3 1022.9 1022.9 0.0
15/02:00am 8.5 6.3 7.7 95 0.4 NNW 9 9 5 5 1022.9 1022.9 0.0
15/01:30am 8.8 6.6 8.0 95 0.4 NW 9 11 5 6 1023.4 1023.4 0.0
15/01:00am 8.4 6.6 7.3 93 0.5 WNW 6 7 3 4 1023.5 1023.5 0.0
15/12:30am 8.3 6.3 6.9 91 0.6 NW 7 7 4 4 1023.8 1023.8 0.0
15/12:00am 9.7 7.8 8.9 95 0.4 NNW 9 11 5 6 1023.8 1023.8 0.0
 
Date/Time
EST
Temp
°C
App
Temp
°C
Dew
Point
°C
Rel
Hum
%
Delta-T
°C
Wind Press
QNH
hPa
Press
MSL
hPa
Rain since
9am
mm
Dir  Spd
km/h
Gust
km/h
Spd
kts
Gust
kts
14/11:30pm 8.8 6.9 7.6 92 0.6 NW 7 7 4 4 1023.9 1023.9 0.0
14/11:00pm 9.4 7.4 8.5 94 0.4 NW 9 11 5 6 1023.9 1023.9 0.0
14/10:30pm 8.6 8.0 7.2 91 0.7 CALM 0 0 0 0 1024.0 1024.0 0.0
14/10:00pm 9.2 8.7 8.0 92 0.6 CALM 0 0 0 0 1024.0 1024.0 0.0
14/09:30pm 9.3 8.5 8.1 92 0.6 NNW 2 7 1 4 1024.1 1024.1 0.0
14/09:00pm 9.8 9.4 8.1 89 0.8 CALM 0 4 0 2 1024.0 1024.0 0.0
14/08:30pm 10.5 10.2 8.6 88 0.9 CALM 0 0 0 0 1023.9 1023.9 0.0
14/08:00pm 11.3 11.1 9.2 87 1.0 CALM 0 4 0 2 1023.6 1023.6 0.0
14/07:30pm 11.8 11.1 8.6 81 1.6 NNW 2 7 1 4 1023.4 1023.4 0.0
14/07:00pm 13.7 12.3 8.7 72 2.5 ESE 6 11 3 6 1022.9 1022.9 0.0
14/06:30pm 13.9 11.7 9.5 75 2.3 SE 11 13 6 7 1022.6 1022.6 0.0
14/06:00pm 14.6 12.5 9.6 72 2.6 SE 11 13 6 7 1022.5 1022.5 0.0
14/05:30pm 16.0 13.6 9.9 67 3.2 SE 13 15 7 8 1022.5 1022.5 0.0
14/05:00pm 17.0 13.7 9.4 61 3.9 SE 17 20 9 11 1022.5 1022.5 0.0
14/04:30pm 17.6 14.0 9.8 60 4.1 SE 19 24 10 13 1022.0 1022.0 0.0
14/04:00pm 17.8 14.2 9.7 59 4.2 SSE 19 26 10 14 1021.9 1021.9 0.0
14/03:30pm 18.7 15.2 10.8 60 4.3 SSE 20 28 11 15 1021.9 1021.9 0.0
14/03:00pm 18.3 13.9 10.4 60 4.2 SE 24 30 13 16 1022.0 1022.0 0.0
14/02:30pm 18.9 13.7 10.2 57 4.7 SE 28 33 15 18 1022.1 1022.1 0.0
14/02:00pm 18.3 13.6 10.7 61 4.1 SSE 26 35 14 19 1022.3 1022.3 0.0
14/01:30pm 18.5 13.5 10.8 61 4.2 SSE 28 39 15 21 1022.3 1022.3 0.0
14/01:00pm 18.9 13.6 11.2 61 4.2 SSE 30 39 16 21 1022.4 1022.4 0.0
14/12:30pm 19.6 14.8 11.6 60 4.4 S 28 37 15 20 1022.5 1022.5 0.0
14/12:00pm 19.6 14.3 11.1 58 4.6 SSE 30 37 16 20 1022.8 1022.8 0.0
14/11:30am 20.2 15.9 12.2 60 4.5 S 26 37 14 20 1023.0 1023.0 0.0
14/11:00am 19.6 14.9 11.9 61 4.3 S 28 37 15 20 1023.1 1023.1 0.0
14/10:30am 19.6 13.6 12.1 62 4.2 SSW 35 43 19 23 1023.2 1023.2 0.0
14/10:00am 19.7 15.5 11.2 58 4.6 SSW 24 33 13 18 1023.1 1023.1 0.0
14/09:30am 19.9 14.3 8.9 49 5.8 SSW 28 35 15 19 1023.1 1023.1 0.0
14/09:00am 19.2 13.4 4.2 37 7.1 SW 24 37 13 20 1022.9 1022.9 0.0

Other formats

Comma delimited format used in spreadsheet applications
http://www.bom.gov.au/fwo/IDN60801/IDN60801.94776.axf

JavaScript Object Notation format (JSON) in row-major order
http://www.bom.gov.au/fwo/IDN60801/IDN60801.94776.json

Data quality

Most of these data are generated automatically and are frequently updated. Quality checks on data are not normally performed. It is possible for incorrect values to appear. Refer to information at About Latest Weather Observations and please check the disclaimer before using these data.